Mendon - 24 Hour Table
Date & TimeSolar
Radiation
(W/m²)
Wind
Speed
(mph)
Wind
Direction
(degrees)
Air
Temperature
(°F)
Relative
Humidity
(%)
Precipitation
(inches)
2020/04/09 15:00 252 0.6 153 68.7 18 0.00
2020/04/09 14:00 877 0.2 150 67.6 19 0.00
2020/04/09 13:00 916 0.3 148 64.7 27 0.00
2020/04/09 12:00 890 0.4 139 60.5 28 0.00
2020/04/09 11:00 809 0.2 74 55.9 38 0.00
2020/04/09 10:00 674 0.2 44 52.3 43 0.00
2020/04/09 09:00 371 0.0 97 48.2 41 0.00
2020/04/09 08:00 127 0.0 343 42.5 64 0.00
2020/04/09 07:00 27 0.0 294 33.6 73 0.00
2020/04/09 06:00 1 0.0 277 32.5 81 0.00
2020/04/09 05:00 0 0.0 290 33.4 79 0.00
2020/04/09 04:00 0 0.0 266 35.0 78 0.00
2020/04/09 03:00 0 0.0 263 36.6 74 0.00
2020/04/09 02:00 0 0.0 250 39.5 69 0.00
2020/04/09 01:00 0 0.0 272 43.8 59 0.00
2020/04/09 00:00 0 0.0 272 45.9 45 0.00
2020/04/08 23:00 0 0.0 255 46.5 49 0.00
2020/04/08 22:00 0 0.7 290 53.0 42 0.00
2020/04/08 21:00 0 0.8 285 51.8 32 0.00
2020/04/08 20:00 1 0.0 244 50.6 56 0.00
2020/04/08 19:00 12 0.0 248 57.8 52 0.00
2020/04/08 18:00 36 0.5 326 63.7 27 0.00
2020/04/08 17:00 51 0.6 338 64.6 25 0.00
2020/04/08 16:00 59 0.5 331 64.3 29 0.00